This is the latest recevied weather packets stored in our database for station/object KJ5FA-10. If no packets are shown the sender has not sent any weather packets the latest 1 day(s).
| Time | Temp. | Humidity | Pressure | Rain* | Wind** | Luminosity | Snow |
|---|---|---|---|---|---|---|---|
| 1778063965 | 10.56° C | 96% | 1013.3 hPa | 0 mm | 0.45 m/s, 360° | - | - |
| 1778063066 | 10.56° C | 97% | 1012.9 hPa | 0 mm | 3.58 m/s, 340° | - | - |
| 1778062167 | 11.11° C | 97% | 1012.8 hPa | 0 mm | 0.89 m/s, 353° | - | - |
| 1778061266 | 11.11° C | 97% | 1012.6 hPa | 0 mm | 0.89 m/s, 12° | - | - |
| 1778060366 | 11.11° C | 97% | 1012.4 hPa | 0 mm | 0.89 m/s, 96° | - | - |
| 1778059466 | 11.11° C | 97% | 1012.7 hPa | 8.89 mm | 0.45 m/s, 360° | - | - |
| 1778058565 | 11.11° C | 97% | 1011.8 hPa | 10.16 mm | 0.89 m/s, 14° | - | - |
| 1778056765 | 11.67° C | 97% | 1011.3 hPa | 13.21 mm | 0.89 m/s, 243° | - | - |
| 1778055866 | 11.67° C | 97% | 1013.6 hPa | 13.21 mm | 1.79 m/s, 359° | - | - |
| 1778054966 | 12.22° C | 97% | 1011 hPa | 18.29 mm | 1.79 m/s, 54° | - | - |
| 1778052266 | 13.33° C | 97% | 1010.7 hPa | 38.1 mm | 1.34 m/s, 332° | - | - |
| 1778051787 | 13.89° C | 97% | 1008.7 hPa | 34.29 mm | 2.24 m/s, 15° | - | - |
| 1778050468 | 17.22° C | 97% | 1007.9 hPa | 16.51 mm | 5.36 m/s, 25° | - | - |
| 1778049568 | 21.11° C | 98% | 1008.1 hPa | 0.76 mm | 3.58 m/s, 40° | - | - |
| 1778048668 | 21.11° C | 98% | 1007.6 hPa | 0 mm | 0.45 m/s, 21° | - | - |
| 1778047768 | 21.11° C | 98% | 1007.6 hPa | 0 mm | 0 m/s | - | - |
| 1778046868 | 21.11° C | 97% | 1007.9 hPa | 0 mm | 0 m/s | - | - |
| 1778045967 | 21.11° C | 97% | 1007.6 hPa | 0 mm | 0 m/s | - | - |
| 1778045068 | 21.11° C | 97% | 1008 hPa | 0 mm | 0 m/s | - | - |
| 1778044167 | 21.11° C | 97% | 1007.8 hPa | 0 mm | 0 m/s | - | - |
| 1778043267 | 20.56° C | 97% | 1007.7 hPa | 0 mm | 0 m/s | - | - |
| 1778042368 | 20.56° C | 97% | 1007.4 hPa | 0 mm | 0.45 m/s, 80° | - | - |
| 1778041467 | 20.56° C | 97% | 1007.9 hPa | 0 mm | 0.45 m/s, 75° | - | - |
| 1778040568 | 20.56° C | 97% | 1008.1 hPa | 0 mm | 0.45 m/s, 89° | - | - |
| 1778039668 | 20.56° C | 96% | 1007.6 hPa | 0 mm | 0 m/s | - | - |
* Rain latest hour (hover to see other rain measurements)
** Current wind speed in m/s (hover to see current wind gust speed)